TimeCAT,TemperatureF,Dew PointF,Humidity,Sea Level PressureIn,VisibilityMPH,Wind Direction,Wind SpeedMPH,Gust SpeedMPH,PrecipitationIn,Events,Conditions,WindDirDegrees,DateUTC
12:00 AM,75.2,60.8,61,29.98,-9999.0,NE,8.1,-,N/A,,Clear,50,2013-03-08 22:00:00
2:00 AM,76,61,50,,6,SSE,3.5,,,,,150,2013-03-09 00:00:00
2:00 AM,77.0,60.8,57,29.98,-9999.0,SSE,3.5,-,N/A,,Clear,150,2013-03-09 00:00:00
3:00 AM,75.2,60.8,61,29.98,-9999.0,East,4.6,-,N/A,,Clear,100,2013-03-09 01:00:00
6:00 AM,75.2,66.2,73,30.01,-9999.0,ENE,3.5,-,N/A,,Clear,70,2013-03-09 04:00:00
7:00 AM,75.2,66.2,73,30.04,-9999.0,ESE,6.9,-,N/A,,Clear,110,2013-03-09 05:00:00
8:00 AM,75.2,66.2,73,30.04,-9999.0,ENE,8.1,-,N/A,,Clear,60,2013-03-09 06:00:00
9:00 AM,77.0,66.2,69,30.06,-9999.0,ENE,8.1,-,N/A,,Clear,70,2013-03-09 07:00:00
10:00 AM,84.2,66.2,55,30.06,-9999.0,NNE,8.1,-,N/A,,Clear,30,2013-03-09 08:00:00
11:00 AM,87.8,66.2,49,30.06,6.2,NNE,9.2,-,N/A,,Scattered Clouds,30,2013-03-09 09:00:00
12:00 PM,91.4,66.2,43,30.04,6.2,NNE,10.4,-,N/A,,Partly Cloudy,20,2013-03-09 10:00:00
1:00 PM,93.2,66.2,41,29.98,6.2,NNE,8.1,-,N/A,,Partly Cloudy,20,2013-03-09 11:00:00
2:00 PM,93,67,33,,6,South,18.4,,,,Mostly Cloudy,170,2013-03-09 12:00:00
2:00 PM,93.2,68.0,44,29.98,6.2,South,18.4,-,N/A,Thunderstorm,Thunderstorm,170,2013-03-09 12:00:00
3:00 PM,73.4,69.8,88,30.01,6.2,NNW,5.8,-,N/A,Rain-Thunderstorm,Light Thunderstorms and Rain,340,2013-03-09 13:00:00
4:00 PM,75.2,69.8,83,29.95,6.2,Variable,2.3,-,N/A,Thunderstorm,Thunderstorm,0,2013-03-09 14:00:00
5:00 PM,78.8,73.4,83,29.92,6.2,SE,4.6,-,N/A,,Mostly Cloudy,140,2013-03-09 15:00:00
6:00 PM,78.8,73.4,83,29.98,6.2,NNE,4.6,-,N/A,,Mostly Cloudy,30,2013-03-09 16:00:00
8:00 PM,76,70,77,,6,NNE,3.5,,,,Scattered Clouds,30,2013-03-09 18:00:00
9:00 PM,75.2,69.8,83,30.01,6.2,NE,3.5,-,N/A,,Scattered Clouds,40,2013-03-09 19:00:00
10:00 PM,75.2,69.8,83,30.04,-9999.0,NE,5.8,-,N/A,,Clear,40,2013-03-09 20:00:00
11:00 PM,73.4,69.8,88,30.04,-9999.0,NNE,3.5,-,N/A,,Clear,30,2013-03-09 21:00:00